Time;durP1;ratioP1;P1;durP2;ratioP2;P2;SDS_P1;SDS_P2;PMS_P1;PMS_P2;Temp;Humidity;BMP_temperature;BMP_pressure;BME280_temperature;BME280_humidity;BME280_pressure;Samples;Min_cycle;Max_cycle;Signal;HPM_P1;HPM_P2
2022/05/15 00:00:38;;;;;;;;;7.33;7.33;;;;;20.17;40.86;101116.84;5078119;28;45837;-67
2022/05/15 00:03:06;;;;;;;;;10.33;6.00;;;;;20.14;40.90;101106.31;5078058;27;45499;-66
2022/05/15 00:05:31;;;;;;;;;9.33;7.00;;;;;20.10;41.00;101097.63;5078603;28;45449;-66
2022/05/15 00:07:56;;;;;;;;;6.00;6.00;;;;;20.09;41.20;101095.06;5078584;28;45436;-67
2022/05/15 00:10:22;;;;;;;;;3.33;2.00;;;;;20.07;41.39;101086.25;5073835;27;46663;-66
2022/05/15 00:12:48;;;;;;;;;5.33;5.33;;;;;20.04;41.25;101077.41;5059560;28;45403;-66
2022/05/15 00:15:13;;;;;;;;;4.00;4.00;;;;;20.04;41.30;101085.50;5077828;27;45245;-65
2022/05/15 00:17:39;;;;;;;;;4.67;4.67;;;;;20.04;41.31;101082.81;5078481;28;45343;-67
2022/05/15 00:20:05;;;;;;;;;6.00;6.00;;;;;20.02;41.41;101078.53;5077273;28;46208;-67
2022/05/15 00:22:35;;;;;;;;;6.00;6.00;;;;;20.03;41.48;101069.44;5079837;27;45247;-65
2022/05/15 00:25:03;;;;;;;;;6.00;4.00;;;;;20.05;41.36;101078.25;5058834;28;45796;-67
2022/05/15 00:27:28;;;;;;;;;6.00;4.67;;;;;20.03;41.29;101069.44;5077520;27;45630;-66
2022/05/15 00:29:54;;;;;;;;;4.33;4.00;;;;;20.04;41.11;101071.16;5076823;27;46257;-65
2022/05/15 00:32:19;;;;;;;;;6.00;4.00;;;;;20.06;41.13;101074.59;5078998;27;45467;-66
2022/05/15 00:34:44;;;;;;;;;7.33;6.00;;;;;20.03;41.03;101070.31;5078129;27;45311;-66
2022/05/15 00:37:10;;;;;;;;;5.00;5.00;;;;;20.01;40.98;101066.88;5065123;27;45496;-65
2022/05/15 00:39:35;;;;;;;;;5.33;5.00;;;;;20.03;41.24;101069.44;5057781;28;46124;-66
2022/05/15 00:42:00;;;;;;;;;3.00;3.00;;;;;20.01;41.47;101064.19;5078783;28;45313;-65
2022/05/15 00:44:26;;;;;;;;;6.33;6.33;;;;;19.99;41.40;101062.63;5077600;28;45283;-66
2022/05/15 00:46:51;;;;;;;;;4.00;4.00;;;;;19.95;41.42;101062.03;5076216;27;45246;-66
2022/05/15 00:49:17;;;;;;;;;5.00;4.00;;;;;19.97;41.22;101064.59;5078381;28;45226;-66
2022/05/15 00:51:53;;;;;;;;;5.00;5.00;;;;;19.93;41.05;101053.22;5065660;27;45452;-67
2022/05/15 00:54:25;;;;;;;;;6.00;5.00;;;;;19.97;41.25;101049.25;5067871;28;45386;-65
2022/05/15 00:57:01;;;;;;;;;4.33;4.33;;;;;19.96;41.46;101050.25;5074035;27;45324;-65
2022/05/15 00:59:32;;;;;;;;;7.33;4.33;;;;;19.95;41.39;101050.38;5069508;28;45369;-68
2022/05/15 01:01:57;;;;;;;;;5.33;4.00;;;;;19.91;41.33;101036.28;5076998;28;45425;-66
2022/05/15 01:04:23;;;;;;;;;3.00;3.00;;;;;19.92;41.67;101040.72;5076718;27;45739;-66
2022/05/15 01:06:49;;;;;;;;;5.00;3.00;;;;;19.91;41.82;101038.97;5077930;28;45648;-65
2022/05/15 01:09:15;;;;;;;;;5.00;3.67;;;;;19.95;41.66;101039.59;5078253;28;46266;-66
2022/05/15 01:11:45;;;;;;;;;6.00;6.00;;;;;19.90;41.57;101034.56;5073494;27;45793;-66
2022/05/15 01:14:13;;;;;;;;;6.00;5.00;;;;;19.95;42.08;101043.16;5077044;27;45548;-66
2022/05/15 01:16:39;;;;;;;;;5.00;5.00;;;;;19.95;41.91;101034.19;5077247;27;45317;-66
2022/05/15 01:19:05;;;;;;;;;7.00;6.00;;;;;19.88;41.75;101020.38;5076121;28;45467;-66
2022/05/15 01:21:40;;;;;;;;;4.33;4.33;;;;;19.92;41.61;101029.03;5069203;27;45356;-66
2022/05/15 01:24:07;;;;;;;;;6.00;6.00;;;;;19.87;41.75;101037.56;5058396;28;45366;-66
2022/05/15 01:26:36;;;;;;;;;15.00;15.00;;;;;19.85;41.95;101034.13;5075346;27;45400;-66
2022/05/15 01:29:03;;;;;;;;;6.00;5.00;;;;;19.84;42.22;101039.69;5077710;27;46300;-66
2022/05/15 01:31:31;;;;;;;;;6.33;5.00;;;;;19.79;41.94;101039.19;5071652;28;46237;-66
2022/05/15 01:33:57;;;;;;;;;6.67;6.67;;;;;19.75;42.55;101033.22;5069980;27;45480;-65
2022/05/15 01:36:23;;;;;;;;;10.00;8.00;;;;;19.78;42.41;101032.97;5070687;28;45275;-64
2022/05/15 01:38:50;;;;;;;;;10.33;10.33;;;;;19.79;42.80;101029.25;5077364;27;45270;-66
2022/05/15 01:41:15;;;;;;;;;17.00;12.33;;;;;19.80;42.62;101031.00;5075584;28;45417;-66
2022/05/15 01:43:43;;;;;;;;;7.33;6.00;;;;;19.76;42.60;101013.34;5077315;28;45328;-66
2022/05/15 01:46:10;;;;;;;;;6.33;5.00;;;;;19.74;42.46;101012.63;5078241;27;45281;-66
2022/05/15 01:48:36;;;;;;;;;8.00;6.00;;;;;19.77;42.57;101012.34;5066404;27;46113;-66
2022/05/15 01:51:01;;;;;;;;;1.67;0.00;;;;;19.74;42.33;101015.34;5076214;27;45435;-66
2022/05/15 01:53:27;;;;;;;;;5.67;4.33;;;;;19.67;42.72;101008.78;5076806;27;45369;-65
2022/05/15 01:55:52;;;;;;;;;4.33;4.00;;;;;19.63;42.91;101012.72;5077372;28;45333;-65
2022/05/15 01:58:18;;;;;;;;;4.67;4.67;;;;;19.61;43.19;101014.69;5077493;28;46127;-67
2022/05/15 02:00:44;;;;;;;;;3.33;3.33;;;;;19.63;43.01;101023.50;5076756;27;45685;-66
2022/05/15 02:03:09;;;;;;;;;7.33;6.33;;;;;19.62;43.05;101017.25;5073588;27;46957;-68
2022/05/15 02:05:35;;;;;;;;;5.00;5.00;;;;;19.55;43.46;101002.59;5076966;27;45428;-67
2022/05/15 02:08:00;;;;;;;;;3.67;3.67;;;;;19.55;43.50;100993.66;5076385;28;46334;-65
2022/05/15 02:10:26;;;;;;;;;5.33;4.00;;;;;19.54;43.35;100998.16;5075651;28;45435;-65
2022/05/15 02:12:51;;;;;;;;;5.00;4.00;;;;;19.56;43.53;101000.78;5076070;28;45263;-66
2022/05/15 02:15:17;;;;;;;;;4.00;4.00;;;;;19.52;43.39;101000.13;5068605;28;45444;-66
2022/05/15 02:17:43;;;;;;;;;3.33;3.00;;;;;19.48;43.65;100987.03;5093306;27;45631;-72
2022/05/15 02:20:11;;;;;;;;;5.00;5.00;;;;;19.43;44.13;100991.00;5077637;27;45333;-70
2022/05/15 02:22:38;;;;;;;;;5.33;5.33;;;;;19.41;44.15;100979.50;5076888;28;45851;-66
2022/05/15 02:25:05;;;;;;;;;5.33;5.33;;;;;19.37;44.17;100982.56;5076488;27;46385;-66
2022/05/15 02:27:31;;;;;;;;;12.00;7.00;;;;;19.34;44.50;100985.56;5075767;27;45488;-67
2022/05/15 02:29:56;;;;;;;;;6.00;6.00;;;;;19.27;44.60;100979.84;5074706;27;45498;-66
2022/05/15 02:32:21;;;;;;;;;12.33;10.00;;;;;19.23;44.76;100978.38;5077300;28;45365;-66
2022/05/15 02:34:47;;;;;;;;;5.00;5.00;;;;;19.17;45.25;100978.94;5075550;28;45638;-65
2022/05/15 02:37:12;;;;;;;;;7.00;7.00;;;;;19.07;45.14;100967.22;5076979;28;46432;-66
2022/05/15 02:39:37;;;;;;;;;5.00;5.00;;;;;19.03;45.67;100979.25;5074928;27;46470;-68
2022/05/15 02:42:03;;;;;;;;;6.33;6.00;;;;;18.98;45.42;100978.78;5077286;27;45333;-68
2022/05/15 02:44:29;;;;;;;;;8.33;7.00;;;;;18.93;46.06;100981.00;5074887;28;45332;-66
2022/05/15 02:46:55;;;;;;;;;9.00;7.00;;;;;18.90;45.73;100987.53;5075347;27;47003;-66
2022/05/15 02:52:05;;;;;;;;;8.33;7.00;;;;;18.87;46.38;100995.84;5077348;28;45249;-66
2022/05/15 02:54:31;;;;;;;;;6.67;6.67;;;;;18.70;47.01;100988.34;5075188;28;45628;-67
2022/05/15 02:56:57;;;;;;;;;7.00;6.00;;;;;18.57;47.37;100997.41;5075452;28;46209;-65
2022/05/15 02:59:23;;;;;;;;;11.00;7.67;;;;;18.47;47.48;101001.84;5075739;27;45379;-66
2022/05/15 03:01:49;;;;;;;;;8.00;7.00;;;;;18.42;47.52;101005.91;5073113;27;45764;-66
2022/05/15 03:04:14;;;;;;;;;6.67;6.33;;;;;18.42;47.27;101000.53;5076787;27;45498;-66
2022/05/15 03:06:40;;;;;;;;;5.33;5.33;;;;;18.40;47.78;100999.78;5076140;28;46628;-66
2022/05/15 03:09:05;;;;;;;;;5.00;5.00;;;;;18.36;48.17;100992.94;5075989;28;45324;-68
2022/05/15 03:11:31;;;;;;;;;8.67;6.67;;;;;18.24;48.39;100998.38;5075068;28;45418;-67
2022/05/15 03:13:56;;;;;;;;;14.00;7.00;;;;;18.17;48.71;100996.28;5074217;28;45482;-65
2022/05/15 03:16:22;;;;;;;;;7.67;7.00;;;;;18.13;48.61;100993.00;5076691;27;45441;-67
2022/05/15 03:18:50;;;;;;;;;10.33;9.00;;;;;18.11;48.21;100989.59;5073091;27;45459;-69
2022/05/15 03:21:38;;;;;;;;;6.00;6.00;;;;;18.11;48.16;100978.81;5075592;28;45292;-67
2022/05/15 03:24:09;;;;;;;;;8.33;7.33;;;;;18.09;48.50;100974.50;5074124;27;45916;-68
2022/05/15 03:26:38;;;;;;;;;8.00;8.00;;;;;18.13;48.29;100974.16;5075914;27;45310;-66
2022/05/15 03:29:05;;;;;;;;;7.67;7.00;;;;;18.17;48.10;100970.22;5073317;27;45416;-67
2022/05/15 03:31:31;;;;;;;;;9.00;7.33;;;;;18.16;48.53;100967.66;5076330;28;45445;-66
2022/05/15 03:33:56;;;;;;;;;7.00;7.00;;;;;18.14;48.12;100970.47;5075776;27;45487;-65
2022/05/15 03:36:21;;;;;;;;;8.00;6.00;;;;;18.10;48.28;100968.13;5074297;27;46045;-67
2022/05/15 03:38:47;;;;;;;;;8.33;7.00;;;;;18.06;48.62;100962.16;5068999;28;45362;-66
2022/05/15 03:41:13;;;;;;;;;8.00;6.67;;;;;18.05;48.41;100963.16;5056855;28;45500;-68
2022/05/15 03:43:39;;;;;;;;;9.00;9.00;;;;;18.02;48.62;100957.16;5066385;27;45251;-66
2022/05/15 03:46:06;;;;;;;;;11.67;8.33;;;;;18.04;48.18;100956.06;5076021;27;46073;-66
2022/05/15 03:48:32;;;;;;;;;6.00;6.00;;;;;18.01;48.35;100959.00;5073992;28;45294;-67
2022/05/15 03:50:57;;;;;;;;;8.67;8.67;;;;;18.05;48.47;100959.59;5073473;28;45264;-67
2022/05/15 03:53:24;;;;;;;;;7.00;5.67;;;;;18.03;48.21;100961.56;5074450;27;45802;-66
2022/05/15 03:55:50;;;;;;;;;11.33;8.33;;;;;18.05;48.12;100959.59;5074504;28;45670;-67
2022/05/15 03:58:17;;;;;;;;;8.33;8.33;;;;;18.02;48.32;100951.78;5075530;27;45528;-67
2022/05/15 04:00:42;;;;;;;;;8.00;6.67;;;;;18.01;48.32;100956.31;5089249;27;45381;-67
2022/05/15 04:03:08;;;;;;;;;9.00;8.00;;;;;17.94;48.29;100945.19;5063560;28;45599;-67
2022/05/15 04:05:34;;;;;;;;;5.00;5.00;;;;;17.92;48.61;100944.44;5067683;28;47064;-68
2022/05/15 04:07:59;;;;;;;;;6.00;5.67;;;;;17.83;48.84;100944.34;5069014;27;45912;-66
2022/05/15 04:10:25;;;;;;;;;5.33;5.33;;;;;17.82;48.74;100943.47;5074500;27;45344;-67
2022/05/15 04:12:50;;;;;;;;;8.33;6.67;;;;;17.81;48.79;100946.28;5075472;28;45304;-67
2022/05/15 04:15:17;;;;;;;;;6.67;6.00;;;;;17.85;48.51;100945.94;5075741;27;45385;-67
2022/05/15 04:17:45;;;;;;;;;8.67;7.33;;;;;17.88;48.31;100950.22;5074264;28;45379;-68
2022/05/15 04:20:12;;;;;;;;;7.33;4.33;;;;;17.87;48.42;100943.13;5075494;28;45385;-67
2022/05/15 04:22:38;;;;;;;;;8.50;6.50;;;;;17.90;48.60;100957.19;5075020;27;45559;-66
2022/05/15 04:25:04;;;;;;;;;8.00;6.67;;;;;17.88;48.57;100953.75;5072875;27;45457;-67
2022/05/15 04:27:30;;;;;;;;;6.33;5.00;;;;;17.82;48.28;100950.69;5075777;27;45379;-69
2022/05/15 04:29:55;;;;;;;;;7.33;6.00;;;;;17.88;48.33;100950.22;5074842;27;45264;-67
2022/05/15 04:32:21;;;;;;;;;6.33;5.00;;;;;17.90;48.38;100949.09;5074673;27;45480;-66
2022/05/15 04:34:46;;;;;;;;;4.67;4.67;;;;;17.90;48.38;100938.34;5073955;28;45475;-68
2022/05/15 04:37:12;;;;;;;;;6.00;6.00;;;;;17.89;48.48;100943.84;5077411;28;45361;-67
2022/05/15 04:39:37;;;;;;;;;12.00;8.00;;;;;17.85;48.38;100934.31;5065693;27;45401;-66
2022/05/15 04:42:03;;;;;;;;;7.00;7.00;;;;;17.90;48.43;100937.50;5077926;28;45337;-66
2022/05/15 04:44:29;;;;;;;;;8.00;7.00;;;;;17.82;48.34;100930.03;5077190;27;46019;-66
2022/05/15 04:46:55;;;;;;;;;13.67;8.00;;;;;17.80;48.83;100939.22;5075658;27;45484;-67
2022/05/15 04:49:20;;;;;;;;;7.00;6.00;;;;;17.81;48.60;100939.06;5078217;27;45384;-67
2022/05/15 04:51:45;;;;;;;;;5.67;5.67;;;;;17.82;48.29;100945.31;5077895;28;45634;-66
2022/05/15 04:54:11;;;;;;;;;7.00;4.67;;;;;17.80;48.56;100941.91;5077871;28;45427;-67
2022/05/15 04:56:36;;;;;;;;;6.00;6.00;;;;;17.85;48.42;100950.47;5075900;27;45495;-66
2022/05/15 04:59:02;;;;;;;;;6.00;6.00;;;;;17.86;48.01;100953.03;5077956;27;45336;-70
2022/05/15 05:01:27;;;;;;;;;5.00;5.00;;;;;17.83;48.45;100953.25;5077357;27;45360;-67
2022/05/15 05:03:55;;;;;;;;;5.67;5.67;;;;;17.83;48.53;100958.63;5075958;28;45680;-67
2022/05/15 05:06:21;;;;;;;;;8.00;6.67;;;;;17.76;48.48;100961.97;5078478;27;45440;-67
2022/05/15 05:08:47;;;;;;;;;8.00;8.00;;;;;17.71;49.14;100958.75;5076923;27;45305;-68
2022/05/15 05:11:13;;;;;;;;;5.67;5.00;;;;;17.69;48.93;100967.81;5078548;27;45769;-66
2022/05/15 05:13:38;;;;;;;;;4.33;4.33;;;;;17.69;48.68;100959.75;5069237;27;45470;-67
2022/05/15 05:16:04;;;;;;;;;5.67;4.67;;;;;17.76;48.79;100961.97;5077270;27;45417;-66
2022/05/15 05:18:29;;;;;;;;;8.00;5.00;;;;;17.79;48.50;100950.94;5076714;27;45411;-67
2022/05/15 05:20:55;;;;;;;;;6.33;6.33;;;;;17.80;48.32;100958.91;5078528;28;45567;-66
2022/05/15 05:23:20;;;;;;;;;5.00;5.00;;;;;17.85;48.52;100962.09;5074973;28;47647;-67
2022/05/15 05:25:45;;;;;;;;;5.67;5.67;;;;;17.89;48.36;100970.75;5077117;28;45598;-67
2022/05/15 05:28:11;;;;;;;;;6.33;6.00;;;;;17.80;48.68;100968.78;5073289;27;45409;-67
2022/05/15 05:30:37;;;;;;;;;5.00;5.00;;;;;17.71;49.06;100965.03;5077972;28;45415;-66
2022/05/15 05:33:03;;;;;;;;;6.67;5.00;;;;;17.63;49.06;100970.13;5075652;27;45432;-65
2022/05/15 05:35:29;;;;;;;;;6.67;5.00;;;;;17.55;49.19;100970.72;5077982;27;45229;-66
2022/05/15 05:37:54;;;;;;;;;5.33;5.33;;;;;17.56;49.05;100967.03;5077100;28;45489;-66
2022/05/15 05:40:22;;;;;;;;;5.67;5.67;;;;;17.62;49.14;100966.56;5094558;27;45339;-67
2022/05/15 05:42:48;;;;;;;;;6.00;5.00;;;;;17.67;48.97;100972.44;5076326;27;46328;-66
2022/05/15 05:45:14;;;;;;;;;4.67;4.67;;;;;17.71;48.87;100962.34;5076140;27;45543;-67
2022/05/15 05:47:40;;;;;;;;;7.00;7.00;;;;;17.67;48.96;100964.38;5074628;28;47693;-67
2022/05/15 05:50:10;;;;;;;;;8.00;6.33;;;;;17.71;49.05;100970.41;5076059;28;45306;-66
2022/05/15 05:52:38;;;;;;;;;8.00;7.00;;;;;17.69;49.09;100967.81;5073534;28;46873;-67
2022/05/15 05:55:05;;;;;;;;;5.67;5.67;;;;;17.68;49.28;100971.50;5077077;27;45451;-67
2022/05/15 05:57:31;;;;;;;;;6.00;5.00;;;;;17.74;49.12;100962.09;5075498;27;45600;-66
2022/05/15 05:59:56;;;;;;;;;8.67;7.33;;;;;17.76;49.08;100961.97;5077478;27;45413;-67
2022/05/15 06:02:22;;;;;;;;;8.00;7.00;;;;;17.80;49.13;100958.91;5073421;28;47118;-67
2022/05/15 06:04:50;;;;;;;;;7.00;7.00;;;;;17.91;48.62;100963.41;5077341;27;45578;-67
2022/05/15 06:07:27;;;;;;;;;7.00;5.00;;;;;18.00;48.41;100957.28;5076304;27;45325;-67
2022/05/15 06:09:53;;;;;;;;;7.00;6.00;;;;;18.06;48.45;100954.09;5077465;27;45333;-65
2022/05/15 06:12:21;;;;;;;;;6.00;6.00;;;;;18.06;48.05;100947.84;5076548;28;46131;-67
2022/05/15 06:14:47;;;;;;;;;9.33;6.67;;;;;18.13;48.23;100949.94;5075990;28;45460;-68
2022/05/15 06:17:13;;;;;;;;;5.00;5.00;;;;;18.21;47.87;100947.44;5076912;27;45392;-66
2022/05/15 06:19:38;;;;;;;;;8.00;6.33;;;;;18.28;47.82;100958.56;5074734;27;45517;-66
2022/05/15 06:22:04;;;;;;;;;6.00;5.00;;;;;18.39;48.02;100963.09;5076462;27;46224;-67
2022/05/15 06:24:30;;;;;;;;;6.00;6.00;;;;;18.47;47.31;100957.91;5063655;27;45387;-68
2022/05/15 06:27:02;;;;;;;;;7.00;5.67;;;;;18.52;46.90;100959.25;5083161;27;45576;-67
2022/05/15 06:29:29;;;;;;;;;6.00;6.00;;;;;18.60;46.90;100950.50;5077854;27;45452;-67
2022/05/15 06:31:54;;;;;;;;;7.33;6.00;;;;;18.69;46.80;100946.22;5075555;28;46887;-67
2022/05/15 06:34:20;;;;;;;;;4.33;4.33;;;;;18.74;46.64;100950.22;5076306;28;45261;-67
2022/05/15 06:36:45;;;;;;;;;7.00;7.00;;;;;18.77;46.61;100949.97;5076324;28;45420;-67
2022/05/15 06:39:11;;;;;;;;;6.00;6.00;;;;;18.88;46.17;100945.50;5074887;27;45288;-68
2022/05/15 06:41:37;;;;;;;;;5.00;5.00;;;;;18.91;45.96;100948.81;5076258;27;46682;-67
2022/05/15 06:44:03;;;;;;;;;9.67;6.33;;;;;18.95;46.01;100962.88;5074862;27;45460;-67
2022/05/15 06:46:29;;;;;;;;;9.00;7.00;;;;;18.98;46.28;100954.50;5077167;27;45356;-68
2022/05/15 06:48:55;;;;;;;;;5.67;5.00;;;;;19.00;46.02;100955.22;5076341;27;45503;-66
2022/05/15 06:51:20;;;;;;;;;8.00;6.33;;;;;19.04;46.22;100959.41;5073375;27;46248;-66
2022/05/15 06:53:47;;;;;;;;;8.00;7.00;;;;;19.09;45.93;100959.84;5068762;28;45405;-67
2022/05/15 06:58:58;;;;;;;;;7.00;6.00;;;;;19.20;45.98;100965.16;5072748;27;45377;-67
2022/05/15 07:01:23;;;;;;;;;8.00;6.67;;;;;19.27;45.76;100960.09;5073959;27;46169;-67
2022/05/15 07:03:49;;;;;;;;;8.00;8.00;;;;;19.33;45.56;100963.13;5074429;28;45447;-68
2022/05/15 07:06:15;;;;;;;;;6.00;6.00;;;;;19.39;45.75;100950.94;5074720;27;45416;-68
2022/05/15 07:08:41;;;;;;;;;8.67;7.00;;;;;19.49;45.49;100951.00;5074499;27;45487;-68
2022/05/15 07:11:07;;;;;;;;;10.00;6.67;;;;;19.60;44.85;100941.00;5071735;28;47766;-68
2022/05/15 07:13:32;;;;;;;;;5.33;5.33;;;;;19.67;44.88;100935.94;5067749;27;45222;-67
2022/05/15 07:15:58;;;;;;;;;7.00;6.00;;;;;19.77;44.75;100931.41;5062107;27;45986;-68
2022/05/15 07:18:24;;;;;;;;;7.67;6.33;;;;;19.87;44.38;100929.59;5074705;27;45540;-66
2022/05/15 07:20:51;;;;;;;;;5.00;5.00;;;;;19.97;43.96;100913.44;5078365;27;45554;-68
2022/05/15 07:23:18;;;;;;;;;7.33;5.00;;;;;20.07;44.17;100914.31;5073901;27;45412;-68
2022/05/15 07:25:43;;;;;;;;;4.00;4.00;;;;;20.21;43.57;100916.59;5073351;27;45657;-65
2022/05/15 07:28:09;;;;;;;;;5.00;5.00;;;;;20.34;43.05;100916.31;5072223;28;45345;-66
2022/05/15 07:30:34;;;;;;;;;8.00;8.00;;;;;20.47;42.89;100905.28;5073271;28;45426;-67
2022/05/15 07:33:00;;;;;;;;;6.33;4.67;;;;;20.60;42.70;100905.84;5073256;28;45779;-65
2022/05/15 07:35:27;;;;;;;;;4.33;4.33;;;;;20.71;42.25;100897.59;5076741;27;45455;-66
2022/05/15 07:37:53;;;;;;;;;6.00;5.00;;;;;20.79;42.36;100899.56;5073729;27;45617;-64
2022/05/15 07:40:18;;;;;;;;;6.00;4.00;;;;;20.89;41.58;100897.69;5069720;27;46738;-64
2022/05/15 07:42:44;;;;;;;;;4.00;4.00;;;;;20.95;41.79;100899.81;5072580;27;45539;-65
2022/05/15 07:45:11;;;;;;;;;3.67;3.00;;;;;21.08;41.80;100888.69;5071802;27;46927;-66
2022/05/15 07:47:39;;;;;;;;;6.00;5.00;;;;;21.18;41.17;100901.19;5073963;27;45381;-65
2022/05/15 07:50:06;;;;;;;;;4.33;4.00;;;;;21.24;40.86;100905.16;5074209;28;45396;-65
2022/05/15 07:52:32;;;;;;;;;4.33;4.33;;;;;21.30;40.68;100888.34;5088501;27;45450;-66
2022/05/15 07:54:57;;;;;;;;;6.00;5.33;;;;;21.37;40.49;100888.63;5076310;27;45434;-64
2022/05/15 07:57:22;;;;;;;;;4.33;4.33;;;;;21.40;40.30;100880.22;5073432;27;45463;-64
2022/05/15 07:59:48;;;;;;;;;4.00;4.00;;;;;21.41;39.77;100874.66;5075824;27;46107;-64
2022/05/15 08:02:13;;;;;;;;;4.00;4.00;;;;;21.51;39.49;100877.31;5074116;27;45357;-64
2022/05/15 08:10:08;;;;;;;;;4.00;4.00;;;;;22.51;37.66;100862.81;5068492;27;47039;-66
2022/05/15 08:12:34;;;;;;;;;3.00;3.00;;;;;23.16;36.56;100860.59;5066883;27;45618;-66
2022/05/15 08:15:04;;;;;;;;;3.00;3.00;;;;;23.69;34.94;100844.09;5078882;27;45349;-66
2022/05/15 08:17:29;;;;;;;;;3.00;3.00;;;;;23.98;34.35;100845.53;5059410;28;45269;-64
2022/05/15 08:25:24;;;;;;;;;2.25;2.25;;;;;24.41;33.75;100833.56;5078307;27;45285;-65
2022/05/15 08:27:49;;;;;;;;;4.50;4.00;;;;;24.61;32.95;100832.19;5075163;27;46309;-63
2022/05/15 08:30:15;;;;;;;;;2.25;2.25;;;;;24.86;32.90;100823.97;5076140;27;46067;-64
2022/05/15 08:32:41;;;;;;;;;2.25;2.25;;;;;25.18;33.74;100821.22;5076726;27;45365;-63
2022/05/15 08:35:07;;;;;;;;;3.50;3.50;;;;;25.56;32.29;100824.13;5078438;27;45235;-65
2022/05/15 08:37:32;;;;;;;;;3.00;3.00;;;;;25.74;31.88;100826.63;5076984;27;45334;-64
2022/05/15 08:39:58;;;;;;;;;3.25;2.00;;;;;25.79;32.05;100814.16;5086238;27;48555;-68
2022/05/15 08:42:47;;;;;;;;;2.75;2.75;;;;;25.82;31.51;100816.53;5076126;27;45479;-67
2022/05/15 08:45:16;;;;;;;;;4.60;3.60;;;;;26.08;31.32;100815.34;5069142;27;45431;-62
2022/05/15 08:47:45;;;;;;;;;4.25;4.25;;;;;26.28;30.11;100812.97;5066246;27;45489;-50
2022/05/15 08:50:12;;;;;;;;;3.40;2.60;;;;;26.44;30.27;100808.28;5077779;27;45451;-50
2022/05/15 08:53:10;;;;;;;;;2.60;2.60;;;;;26.67;30.12;100801.91;5077255;27;45500;-53
2022/05/15 08:55:40;;;;;;;;;2.20;2.20;;;;;27.04;29.51;100806.50;5075969;27;45472;-50
2022/05/15 08:58:11;;;;;;;;;5.20;2.40;;;;;27.34;29.34;100807.31;5073744;27;45531;-52
2022/05/15 09:01:07;;;;;;;;;3.00;2.00;;;;;27.57;32.79;100804.47;5072736;27;45771;-65
2022/05/15 09:03:37;;;;;;;;;2.00;2.00;;;;;27.56;30.71;100802.78;5049121;28;45360;-66
2022/05/15 09:06:05;;;;;;;;;3.60;2.80;;;;;27.60;32.36;100804.91;5071435;28;45448;-63
2022/05/15 09:09:09;;;;;;;;;3.20;2.00;;;;;27.72;31.77;100790.78;5078221;28;45294;-63
2022/05/15 09:11:55;;;;;;;;;2.00;2.00;;;;;27.81;29.20;100792.38;5075268;28;47627;-64
2022/05/15 09:14:26;;;;;;;;;1.00;1.00;;;;;27.96;28.44;100800.53;5076399;27;45278;-63
2022/05/15 09:17:21;;;;;;;;;3.00;3.00;;;;;27.98;30.14;100801.16;5077288;28;45477;-68
2022/05/15 09:19:55;;;;;;;;;4.60;4.60;;;;;28.04;28.24;100797.69;5059696;27;45477;-67
2022/05/15 09:22:26;;;;;;;;;5.40;5.40;;;;;28.04;28.72;100790.31;5077302;28;45508;-67
2022/05/15 09:24:51;;;;;;;;;6.20;4.60;;;;;28.16;28.97;100780.56;5078394;27;45269;-64
2022/05/15 09:27:23;;;;;;;;;3.00;2.25;;;;;28.38;28.98;100791.50;5078438;27;45318;-66
2022/05/15 09:30:00;;;;;;;;;3.40;2.60;;;;;28.61;29.12;100792.09;5078364;27;45396;-65
2022/05/15 09:32:33;;;;;;;;;3.40;2.00;;;;;28.85;28.03;100789.97;5077893;27;46293;-64
2022/05/15 09:35:01;;;;;;;;;2.00;2.00;;;;;29.13;28.25;100792.69;5077061;27;45606;-66
2022/05/15 09:40:21;;;;;;;;;5.40;5.40;;;;;29.53;26.93;100780.06;5078192;28;45392;-66
2022/05/15 09:45:58;;;;;;;;;2.80;2.80;;;;;29.89;25.84;100769.63;5077811;28;45325;-65
2022/05/15 09:48:32;;;;;;;;;3.80;2.20;;;;;30.18;26.12;100767.56;5093649;27;45420;-63
2022/05/15 09:51:04;;;;;;;;;2.20;2.20;;;;;30.42;24.49;100766.94;5075844;28;45554;-64
2022/05/15 09:53:49;;;;;;;;;3.20;2.20;;;;;30.64;24.25;100758.53;5078339;27;45981;-64
2022/05/15 09:56:24;;;;;;;;;2.00;2.00;;;;;30.84;23.97;100762.06;5077545;28;45528;-62
2022/05/15 09:58:54;;;;;;;;;1.20;1.20;;;;;31.12;23.81;100764.50;5077894;28;45305;-65
2022/05/15 10:01:33;;;;;;;;;2.20;2.20;;;;;31.38;22.66;100749.88;5093563;27;45635;-64
2022/05/15 10:03:59;;;;;;;;;1.40;1.40;;;;;31.62;22.77;100742.75;5077444;27;46147;-64
2022/05/15 10:06:31;;;;;;;;;1.60;1.60;;;;;31.62;22.31;100751.84;5077674;27;45430;-65
2022/05/15 10:09:24;;;;;;;;;1.00;1.00;;;;;31.63;23.31;100745.28;5076376;27;45226;-69
2022/05/15 10:11:57;;;;;;;;;1.00;1.00;;;;;31.42;23.28;100733.81;5078445;27;45409;-69
2022/05/15 10:14:43;;;;;;;;;1.40;1.40;;;;;31.14;22.27;100732.19;5077320;27;45535;-65
2022/05/15 10:17:11;;;;;;;;;1.80;1.80;;;;;30.98;23.42;100743.66;5077156;28;45357;-64
2022/05/15 10:19:53;;;;;;;;;2.60;2.60;;;;;30.85;22.72;100730.78;5077535;27;45434;-64
2022/05/15 10:22:44;;;;;;;;;6.40;2.20;;;;;30.56;23.13;100725.75;5076026;28;45577;-65
2022/05/15 10:25:19;;;;;;;;;4.40;2.20;;;;;30.32;23.43;100730.84;5073833;27;46231;-65
2022/05/15 10:28:04;;;;;;;;;2.20;2.20;;;;;30.05;24.54;100721.78;5077231;28;46190;-64
2022/05/15 10:30:35;;;;;;;;;1.20;1.20;;;;;29.82;23.91;100715.81;5077550;27;45891;-64
2022/05/15 10:33:18;;;;;;;;;3.60;1.00;;;;;29.53;23.97;100714.28;5077414;27;45199;-65
2022/05/15 10:36:03;;;;;;;;;2.00;2.00;;;;;29.29;24.38;100713.75;5077011;28;45483;-64
2022/05/15 10:38:39;;;;;;;;;8.40;4.00;;;;;29.11;24.93;100710.75;5077198;28;45419;-65
2022/05/15 10:41:23;;;;;;;;;1.60;1.60;;;;;28.92;25.21;100708.78;5077332;27;45380;-70
2022/05/15 10:43:55;;;;;;;;;2.80;2.80;;;;;28.74;25.99;100714.72;5057215;28;45420;-72
2022/05/15 10:46:46;;;;;;;;;2.00;2.00;;;;;28.44;25.90;100714.97;5055587;28;47082;-65
2022/05/15 10:49:43;;;;;;;;;1.60;1.60;;;;;28.37;26.62;100713.22;5063045;28;45475;-69
2022/05/15 10:52:37;;;;;;;;;4.20;3.20;;;;;28.33;26.60;100712.78;5075279;28;45320;-64
2022/05/15 10:58:51;;;;;;;;;2.60;1.80;;;;;28.37;26.42;100697.63;5076626;28;45897;-66
2022/05/15 11:01:46;;;;;;;;;3.80;2.40;;;;;28.38;26.60;100704.78;5077011;27;45840;-67
2022/05/15 11:04:32;;;;;;;;;4.20;3.40;;;;;28.36;26.37;100698.69;5075714;28;45377;-67
2022/05/15 11:07:07;;;;;;;;;2.00;2.00;;;;;28.31;26.10;100682.03;5075032;27;45507;-65
2022/05/15 11:10:20;;;;;;;;;2.00;2.00;;;;;28.32;26.66;100691.09;5075812;28;46065;-65
2022/05/15 11:13:28;;;;;;;;;2.00;2.00;;;;;28.37;26.54;100677.66;5075359;28;45393;-65
2022/05/15 11:16:02;;;;;;;;;2.60;2.60;;;;;28.27;25.76;100682.66;4994657;28;45383;-71
2022/05/15 11:18:28;;;;;;;;;1.40;1.20;;;;;28.28;25.71;100681.59;5065849;28;45428;-68
2022/05/15 11:21:01;;;;;;;;;0.00;0.00;;;;;28.29;25.27;100677.81;5076813;28;46136;-66
2022/05/15 11:23:36;;;;;;;;;3.00;3.00;;;;;28.32;26.16;100671.94;5074771;27;45317;-65
2022/05/15 11:26:27;;;;;;;;;2.60;2.60;;;;;28.26;25.65;100670.84;5076423;27;45447;-65
2022/05/15 11:28:56;;;;;;;;;3.00;2.00;;;;;28.26;25.95;100667.22;5076681;27;45344;-63
2022/05/15 11:31:30;;;;;;;;;3.40;3.40;;;;;28.30;25.24;100663.09;5076078;27;45459;-65
2022/05/15 11:33:57;;;;;;;;;2.40;2.40;;;;;28.33;24.72;100662.69;5076299;27;45387;-65
2022/05/15 11:36:22;;;;;;;;;1.60;1.60;;;;;28.36;24.27;100665.03;5076412;28;45406;-66
2022/05/15 11:38:53;;;;;;;;;2.50;2.50;;;;;28.44;24.75;100659.41;5075590;27;45325;-70
2022/05/15 11:41:34;;;;;;;;;5.00;5.00;;;;;28.50;24.06;100650.38;5076475;27;45299;-68
2022/05/15 11:44:05;;;;;;;;;1.40;1.40;;;;;28.65;23.83;100645.66;5076550;28;45353;-63
2022/05/15 11:46:45;;;;;;;;;3.40;3.40;;;;;28.83;25.25;100652.47;5082419;27;45468;-67
2022/05/15 11:49:15;;;;;;;;;2.20;2.20;;;;;28.97;23.48;100648.75;5082990;28;45376;-63
2022/05/15 11:51:42;;;;;;;;;2.20;2.20;;;;;28.96;23.51;100652.56;5082874;27;46359;-66
2022/05/15 11:54:10;;;;;;;;;2.40;2.00;;;;;29.02;24.06;100651.72;5083185;27;45347;-68
2022/05/15 11:56:52;;;;;;;;;2.00;2.00;;;;;29.16;23.87;100642.50;5081988;27;45226;-67
2022/05/15 11:59:32;;;;;;;;;2.60;2.60;;;;;29.14;23.23;100633.63;5083169;27;45417;-65